TimeCST,TemperatureF,Dew PointF,Humidity,Sea Level PressureIn,VisibilityMPH,Wind Direction,Wind SpeedMPH,Gust SpeedMPH,PrecipitationIn,Events,Conditions,WindDirDegrees,DateUTC
12:13 AM,33.8,28.4,81,29.09,-9999.0,West,17.3,24.2,N/A,,Overcast,280,2014-01-16 06:13:00
12:33 AM,33.8,28.4,81,29.11,7.0,NW,25.3,31.1,N/A,,Unknown,310,2014-01-16 06:33:00
12:53 AM,30.2,26.6,86,29.13,10.0,NW,24.2,28.8,N/A,,Overcast,320,2014-01-16 06:53:00
1:14 AM,28.4,24.8,86,29.15,5.0,NW,27.6,39.1,N/A,Rain,Freezing Rain,310,2014-01-16 07:14:00
1:33 AM,23.0,19.4,86,29.19,1.8,NW,35.7,39.1,N/A,Snow,Light Snow,310,2014-01-16 07:33:00
1:53 AM,17.6,12.2,79,29.21,2.5,NW,28.8,40.3,N/A,,Haze,310,2014-01-16 07:53:00
2:14 AM,15.8,10.4,79,29.23,2.5,NW,25.3,38.0,N/A,Snow,Light Snow,310,2014-01-16 08:14:00
2:33 AM,12.2,8.6,85,29.24,1.8,NW,29.9,35.7,N/A,Snow,Light Snow,310,2014-01-16 08:33:00
2:53 AM,10.4,6.8,85,29.26,2.0,WNW,28.8,34.5,N/A,Snow,Light Snow,300,2014-01-16 08:53:00
3:14 AM,8.6,3.2,79,29.29,1.5,NNW,34.5,42.6,N/A,Snow,Light Snow,330,2014-01-16 09:14:00
3:33 AM,8.6,3.2,79,29.31,2.0,NW,34.5,41.4,N/A,Snow,Light Snow,310,2014-01-16 09:33:00
3:54 AM,6.8,1.4,79,29.32,2.5,NW,27.6,35.7,N/A,Snow,Light Snow,310,2014-01-16 09:54:00
4:14 AM,5.0,1.4,85,29.34,2.0,NW,29.9,33.4,N/A,Snow,Light Snow,310,2014-01-16 10:14:00
4:33 AM,3.2,-0.4,85,29.35,2.0,NW,33.4,40.3,N/A,,Haze,320,2014-01-16 10:33:00
4:54 AM,3.2,-2.2,78,29.37,4.0,NW,25.3,31.1,N/A,,Haze,320,2014-01-16 10:54:00
5:14 AM,3.2,-2.2,78,29.38,4.0,NW,25.3,39.1,N/A,,Haze,310,2014-01-16 11:14:00
5:33 AM,3.2,-2.2,78,29.39,4.0,NW,28.8,39.1,N/A,,Haze,310,2014-01-16 11:33:00
5:54 AM,3.2,-2.2,78,29.41,3.0,NW,26.5,33.4,N/A,Snow,Light Snow,320,2014-01-16 11:54:00
6:13 AM,3.2,-2.2,78,29.42,4.0,NW,23.0,33.4,N/A,,Haze,320,2014-01-16 12:13:00
6:33 AM,3.2,-2.2,78,29.44,5.0,NW,27.6,32.2,N/A,,Haze,320,2014-01-16 12:33:00
6:54 AM,3.2,-2.2,78,29.44,4.0,NW,26.5,31.1,N/A,,Haze,310,2014-01-16 12:54:00
7:13 AM,3.2,-2.2,78,29.45,2.5,NW,26.5,35.7,N/A,,Haze,310,2014-01-16 13:13:00
7:34 AM,3.2,-2.2,78,29.47,2.5,NW,28.8,34.5,N/A,,Haze,310,2014-01-16 13:34:00
7:54 AM,3.2,-0.4,85,29.49,2.5,NW,28.8,34.5,N/A,,Overcast,320,2014-01-16 13:54:00
8:13 AM,3.2,-0.4,85,29.50,2.5,NW,26.5,-,N/A,,Haze,320,2014-01-16 14:13:00
8:34 AM,3.2,-0.4,85,29.52,4.0,NW,27.6,32.2,N/A,,Haze,320,2014-01-16 14:34:00
8:53 AM,3.2,-0.4,85,29.54,3.0,NW,26.5,32.2,N/A,,Haze,320,2014-01-16 14:53:00
9:13 AM,3.2,-0.4,85,29.55,0.8,NW,27.6,32.2,N/A,Snow,Light Snow,320,2014-01-16 15:13:00
9:34 AM,5.0,1.4,85,29.57,0.5,NW,28.8,-,N/A,Snow,Light Snow,320,2014-01-16 15:34:00
9:53 AM,5.0,1.4,85,29.59,1.2,NNW,26.5,29.9,N/A,,Overcast,330,2014-01-16 15:53:00
10:13 AM,6.8,1.4,79,29.60,2.0,NNW,26.5,-,N/A,,Haze,330,2014-01-16 16:13:00
10:34 AM,6.8,1.4,79,29.62,2.5,NNW,27.6,-,N/A,,Haze,340,2014-01-16 16:34:00
10:53 AM,6.8,1.4,79,29.64,2.5,NNW,27.6,-,N/A,,Haze,330,2014-01-16 16:53:00
11:14 AM,6.8,1.4,79,29.66,3.0,NNW,26.5,33.4,N/A,,Haze,340,2014-01-16 17:14:00
11:33 AM,6.8,1.4,79,29.66,2.0,NNW,25.3,31.1,N/A,,Haze,340,2014-01-16 17:33:00
11:53 AM,6.8,1.4,79,29.67,2.5,NNW,23.0,32.2,N/A,,Haze,340,2014-01-16 17:53:00
12:14 PM,6.8,1.4,79,29.69,2.0,NNW,23.0,28.8,N/A,,Haze,340,2014-01-16 18:14:00
12:33 PM,6.8,1.4,79,29.70,2.0,NNW,26.5,31.1,N/A,,Haze,330,2014-01-16 18:33:00
12:53 PM,6.8,-0.4,72,29.71,1.5,NNW,26.5,36.8,N/A,,Haze,330,2014-01-16 18:53:00
1:14 PM,5.0,-0.4,78,29.72,2.0,NNW,27.6,33.4,N/A,,Haze,330,2014-01-16 19:14:00
1:33 PM,6.8,-0.4,72,29.73,2.5,NNW,29.9,34.5,N/A,,Haze,340,2014-01-16 19:33:00
1:53 PM,6.8,-0.4,72,29.75,2.0,NNW,26.5,38.0,N/A,,Haze,340,2014-01-16 19:53:00
2:14 PM,6.8,-0.4,72,29.76,4.0,NNW,25.3,33.4,N/A,,Haze,340,2014-01-16 20:14:00
2:33 PM,6.8,-0.4,72,29.78,4.0,NNW,28.8,34.5,N/A,,Haze,340,2014-01-16 20:33:00
2:53 PM,6.8,-0.4,72,29.79,10.0,NNW,21.9,-,N/A,,Scattered Clouds,340,2014-01-16 20:53:00
3:14 PM,6.8,1.4,79,29.82,10.0,NNW,23.0,27.6,N/A,,Mostly Cloudy,330,2014-01-16 21:14:00
3:33 PM,6.8,1.4,79,29.83,7.0,NNW,19.6,31.1,N/A,,Mostly Cloudy,330,2014-01-16 21:33:00
3:53 PM,6.8,1.4,79,29.84,7.0,NNW,24.2,-,N/A,,Scattered Clouds,330,2014-01-16 21:53:00
4:13 PM,6.8,1.4,79,29.86,7.0,NNW,27.6,33.4,N/A,,Clear,340,2014-01-16 22:13:00
4:33 PM,6.8,-0.4,72,29.88,7.0,NNW,24.2,29.9,N/A,,Clear,340,2014-01-16 22:33:00
4:54 PM,6.8,-0.4,72,29.89,10.0,NNW,18.4,26.5,N/A,,Clear,340,2014-01-16 22:54:00
5:13 PM,5.0,-0.4,78,29.91,10.0,NNW,21.9,-,N/A,,Clear,340,2014-01-16 23:13:00
5:33 PM,5.0,-0.4,78,29.91,10.0,NNW,23.0,29.9,N/A,,Clear,330,2014-01-16 23:33:00
5:54 PM,3.2,-2.2,78,29.94,10.0,NNW,24.2,-,N/A,,Clear,330,2014-01-16 23:54:00
6:13 PM,3.2,-2.2,78,29.95,10.0,NNW,23.0,27.6,N/A,,Clear,330,2014-01-17 00:13:00
6:33 PM,3.2,-2.2,78,29.95,7.0,NNW,23.0,-,N/A,,Clear,330,2014-01-17 00:33:00
6:54 PM,1.4,-2.2,85,29.96,10.0,NNW,21.9,-,N/A,,Clear,330,2014-01-17 00:54:00
7:13 PM,1.4,-4.0,78,29.98,7.0,NNW,20.7,25.3,N/A,,Clear,330,2014-01-17 01:13:00
7:33 PM,1.4,-4.0,78,29.98,10.0,NNW,19.6,-,N/A,,Clear,330,2014-01-17 01:33:00
7:54 PM,-0.4,-5.8,78,30.00,10.0,NNW,18.4,25.3,N/A,,Clear,340,2014-01-17 01:54:00
8:13 PM,-0.4,-5.8,78,30.00,10.0,NNW,19.6,-,N/A,,Clear,330,2014-01-17 02:13:00
8:34 PM,-0.4,-5.8,78,30.01,10.0,NNW,18.4,-,N/A,,Clear,330,2014-01-17 02:34:00
8:54 PM,-0.4,-5.8,78,30.02,10.0,NNW,18.4,-,N/A,,Clear,340,2014-01-17 02:54:00
9:13 PM,-2.2,-7.6,78,30.03,10.0,NNW,17.3,-,N/A,,Clear,340,2014-01-17 03:13:00
9:34 PM,-2.2,-7.6,78,30.03,10.0,NNW,18.4,-,N/A,,Clear,340,2014-01-17 03:34:00
9:54 PM,-2.2,-7.6,78,30.03,10.0,NNW,21.9,-,N/A,,Clear,330,2014-01-17 03:54:00
10:13 PM,-2.2,-7.6,78,30.04,10.0,NNW,18.4,-,N/A,,Clear,340,2014-01-17 04:13:00
10:34 PM,-4.0,-9.4,78,30.04,10.0,NNW,17.3,-,N/A,,Clear,340,2014-01-17 04:34:00
10:54 PM,-5.8,-9.4,84,30.04,10.0,NNW,12.7,-,N/A,,Clear,340,2014-01-17 04:54:00
11:13 PM,-5.8,-9.4,84,30.04,10.0,NNW,15.0,-,N/A,,Clear,340,2014-01-17 05:13:00
11:34 PM,-5.8,-9.4,84,30.04,10.0,North,11.5,-,N/A,,Clear,350,2014-01-17 05:34:00
11:53 PM,-5.8,-11.2,77,30.04,10.0,NNW,12.7,-,N/A,,Clear,340,2014-01-17 05:53:00